sensor_id;sensor_type;location;lat;lon;timestamp;temperature;humidity
42135;DHT22;28312;43.460;11.810;2023-07-29T00:02:24;22.70;57.30
42135;DHT22;28312;43.460;11.810;2023-07-29T00:06:27;22.70;57.30
42135;DHT22;28312;43.460;11.810;2023-07-29T00:10:37;22.70;57.50
42135;DHT22;28312;43.460;11.810;2023-07-29T00:14:41;22.70;57.60
42135;DHT22;28312;43.460;11.810;2023-07-29T00:18:49;22.70;57.70
42135;DHT22;28312;43.460;11.810;2023-07-29T00:22:53;22.60;57.80
42135;DHT22;28312;43.460;11.810;2023-07-29T00:26:57;22.60;57.90
42135;DHT22;28312;43.460;11.810;2023-07-29T00:31:02;22.40;58.00
42135;DHT22;28312;43.460;11.810;2023-07-29T00:35:06;22.30;58.20
42135;DHT22;28312;43.460;11.810;2023-07-29T00:39:10;22.20;58.40
42135;DHT22;28312;43.460;11.810;2023-07-29T00:43:13;22.10;58.60
42135;DHT22;28312;43.460;11.810;2023-07-29T00:47:18;22.00;58.80
42135;DHT22;28312;43.460;11.810;2023-07-29T00:51:24;22.00;58.90
42135;DHT22;28312;43.460;11.810;2023-07-29T00:55:28;21.90;59.10
42135;DHT22;28312;43.460;11.810;2023-07-29T00:59:31;21.80;59.30
42135;DHT22;28312;43.460;11.810;2023-07-29T01:03:35;21.70;59.50
42135;DHT22;28312;43.460;11.810;2023-07-29T01:12:42;21.70;59.60
42135;DHT22;28312;43.460;11.810;2023-07-29T01:17:00;21.60;59.50
42135;DHT22;28312;43.460;11.810;2023-07-29T01:21:08;21.60;59.40
42135;DHT22;28312;43.460;11.810;2023-07-29T01:25:13;21.60;59.30
42135;DHT22;28312;43.460;11.810;2023-07-29T01:29:17;21.40;59.30
42135;DHT22;28312;43.460;11.810;2023-07-29T01:33:25;21.30;59.40
42135;DHT22;28312;43.460;11.810;2023-07-29T01:37:32;21.20;59.50
42135;DHT22;28312;43.460;11.810;2023-07-29T01:41:37;21.10;59.50
42135;DHT22;28312;43.460;11.810;2023-07-29T01:45:43;21.00;59.70
42135;DHT22;28312;43.460;11.810;2023-07-29T01:49:46;20.80;59.20
42135;DHT22;28312;43.460;11.810;2023-07-29T01:53:50;20.70;59.40
42135;DHT22;28312;43.460;11.810;2023-07-29T01:57:54;20.70;59.50
42135;DHT22;28312;43.460;11.810;2023-07-29T02:01:59;20.50;59.60
42135;DHT22;28312;43.460;11.810;2023-07-29T02:06:02;20.40;59.80
42135;DHT22;28312;43.460;11.810;2023-07-29T02:10:06;20.30;59.80
42135;DHT22;28312;43.460;11.810;2023-07-29T02:14:11;20.20;59.90
42135;DHT22;28312;43.460;11.810;2023-07-29T02:18:14;20.20;59.90
42135;DHT22;28312;43.460;11.810;2023-07-29T02:22:18;20.10;60.00
42135;DHT22;28312;43.460;11.810;2023-07-29T02:26:22;19.90;60.10
42135;DHT22;28312;43.460;11.810;2023-07-29T02:30:25;19.90;60.30
42135;DHT22;28312;43.460;11.810;2023-07-29T02:34:30;19.80;60.40
42135;DHT22;28312;43.460;11.810;2023-07-29T02:38:33;19.70;60.50
42135;DHT22;28312;43.460;11.810;2023-07-29T02:42:37;19.60;60.50
42135;DHT22;28312;43.460;11.810;2023-07-29T02:46:41;19.60;60.60
42135;DHT22;28312;43.460;11.810;2023-07-29T02:50:45;19.60;60.50
42135;DHT22;28312;43.460;11.810;2023-07-29T02:54:49;19.50;60.60
42135;DHT22;28312;43.460;11.810;2023-07-29T02:58:52;19.40;60.80
42135;DHT22;28312;43.460;11.810;2023-07-29T03:02:56;19.40;60.70
42135;DHT22;28312;43.460;11.810;2023-07-29T03:06:59;19.40;60.70
42135;DHT22;28312;43.460;11.810;2023-07-29T03:11:07;19.30;60.70
42135;DHT22;28312;43.460;11.810;2023-07-29T03:15:12;19.20;60.80
42135;DHT22;28312;43.460;11.810;2023-07-29T03:19:16;19.10;60.90
42135;DHT22;28312;43.460;11.810;2023-07-29T03:23:19;19.10;61.00
42135;DHT22;28312;43.460;11.810;2023-07-29T03:27:23;19.10;61.00
42135;DHT22;28312;43.460;11.810;2023-07-29T03:31:26;19.00;61.10
42135;DHT22;28312;43.460;11.810;2023-07-29T03:35:31;18.90;61.10
42135;DHT22;28312;43.460;11.810;2023-07-29T03:39:35;18.80;61.20
42135;DHT22;28312;43.460;11.810;2023-07-29T03:43:39;18.70;61.30
42135;DHT22;28312;43.460;11.810;2023-07-29T03:47:42;18.70;61.40
42135;DHT22;28312;43.460;11.810;2023-07-29T03:51:46;18.70;61.40
42135;DHT22;28312;43.460;11.810;2023-07-29T03:55:49;18.70;61.50
42135;DHT22;28312;43.460;11.810;2023-07-29T03:59:54;18.60;61.60
42135;DHT22;28312;43.460;11.810;2023-07-29T04:03:58;18.60;61.70
42135;DHT22;28312;43.460;11.810;2023-07-29T04:08:02;18.60;61.80
42135;DHT22;28312;43.460;11.810;2023-07-29T04:12:06;18.50;61.80
42135;DHT22;28312;43.460;11.810;2023-07-29T04:16:09;18.50;61.80
42135;DHT22;28312;43.460;11.810;2023-07-29T04:20:13;18.50;61.80
42135;DHT22;28312;43.460;11.810;2023-07-29T04:24:17;18.50;61.90
42135;DHT22;28312;43.460;11.810;2023-07-29T04:28:20;18.50;62.10
42135;DHT22;28312;43.460;11.810;2023-07-29T04:32:24;18.50;62.10
42135;DHT22;28312;43.460;11.810;2023-07-29T04:36:27;18.50;62.10
42135;DHT22;28312;43.460;11.810;2023-07-29T04:40:33;18.60;62.30
42135;DHT22;28312;43.460;11.810;2023-07-29T04:44:37;18.60;62.30
42135;DHT22;28312;43.460;11.810;2023-07-29T04:48:40;18.70;62.40
42135;DHT22;28312;43.460;11.810;2023-07-29T04:52:44;18.80;62.60
42135;DHT22;28312;43.460;11.810;2023-07-29T04:56:47;18.90;62.70
42135;DHT22;28312;43.460;11.810;2023-07-29T05:00:52;18.90;62.80
42135;DHT22;28312;43.460;11.810;2023-07-29T05:04:56;19.10;62.90
42135;DHT22;28312;43.460;11.810;2023-07-29T05:09:15;19.20;62.90
42135;DHT22;28312;43.460;11.810;2023-07-29T05:13:20;19.40;63.00
42135;DHT22;28312;43.460;11.810;2023-07-29T05:17:23;19.50;63.00
42135;DHT22;28312;43.460;11.810;2023-07-29T05:21:27;19.70;62.90
42135;DHT22;28312;43.460;11.810;2023-07-29T05:25:31;19.80;63.10
42135;DHT22;28312;43.460;11.810;2023-07-29T05:29:35;20.00;63.20
42135;DHT22;28312;43.460;11.810;2023-07-29T05:33:39;20.20;63.20
42135;DHT22;28312;43.460;11.810;2023-07-29T05:37:43;20.40;63.20
42135;DHT22;28312;43.460;11.810;2023-07-29T05:41:46;20.70;63.20
42135;DHT22;28312;43.460;11.810;2023-07-29T05:45:51;20.90;63.20
42135;DHT22;28312;43.460;11.810;2023-07-29T05:49:55;21.20;63.40
42135;DHT22;28312;43.460;11.810;2023-07-29T05:53:59;21.60;63.50
42135;DHT22;28312;43.460;11.810;2023-07-29T05:58:02;22.00;63.40
42135;DHT22;28312;43.460;11.810;2023-07-29T06:02:06;22.30;62.90
42135;DHT22;28312;43.460;11.810;2023-07-29T06:06:09;22.40;62.50
42135;DHT22;28312;43.460;11.810;2023-07-29T06:10:14;22.60;62.20
42135;DHT22;28312;43.460;11.810;2023-07-29T06:14:23;22.70;62.00
42135;DHT22;28312;43.460;11.810;2023-07-29T06:18:27;22.70;62.10
42135;DHT22;28312;43.460;11.810;2023-07-29T06:22:30;22.90;62.20
42135;DHT22;28312;43.460;11.810;2023-07-29T06:26:33;23.10;62.10
42135;DHT22;28312;43.460;11.810;2023-07-29T06:30:37;23.30;62.10
42135;DHT22;28312;43.460;11.810;2023-07-29T06:34:41;23.50;61.90
42135;DHT22;28312;43.460;11.810;2023-07-29T06:38:44;23.60;62.00
42135;DHT22;28312;43.460;11.810;2023-07-29T06:42:47;23.70;62.00
42135;DHT22;28312;43.460;11.810;2023-07-29T06:46:52;24.00;61.90
42135;DHT22;28312;43.460;11.810;2023-07-29T06:50:55;24.10;61.90
42135;DHT22;28312;43.460;11.810;2023-07-29T06:55:03;24.40;61.70
42135;DHT22;28312;43.460;11.810;2023-07-29T06:59:07;24.60;61.60
42135;DHT22;28312;43.460;11.810;2023-07-29T07:03:10;24.80;61.50
42135;DHT22;28312;43.460;11.810;2023-07-29T07:07:15;25.10;61.30
42135;DHT22;28312;43.460;11.810;2023-07-29T07:11:19;25.50;61.10
42135;DHT22;28312;43.460;11.810;2023-07-29T07:15:23;25.70;60.70
42135;DHT22;28312;43.460;11.810;2023-07-29T07:19:27;25.80;60.60
42135;DHT22;28312;43.460;11.810;2023-07-29T07:23:30;26.00;60.60
42135;DHT22;28312;43.460;11.810;2023-07-29T07:27:34;26.10;60.50
42135;DHT22;28312;43.460;11.810;2023-07-29T07:31:37;26.20;60.50
42135;DHT22;28312;43.460;11.810;2023-07-29T07:35:40;26.40;60.40
42135;DHT22;28312;43.460;11.810;2023-07-29T07:39:45;26.50;60.20
42135;DHT22;28312;43.460;11.810;2023-07-29T07:43:48;26.70;60.30
42135;DHT22;28312;43.460;11.810;2023-07-29T07:47:53;27.00;60.10
42135;DHT22;28312;43.460;11.810;2023-07-29T07:51:56;27.30;59.70
42135;DHT22;28312;43.460;11.810;2023-07-29T07:56:00;27.50;59.50
42135;DHT22;28312;43.460;11.810;2023-07-29T08:00:04;27.60;59.20
42135;DHT22;28312;43.460;11.810;2023-07-29T08:04:14;27.70;59.30
42135;DHT22;28312;43.460;11.810;2023-07-29T08:08:18;27.90;59.30
42135;DHT22;28312;43.460;11.810;2023-07-29T08:12:22;28.10;59.00
42135;DHT22;28312;43.460;11.810;2023-07-29T08:16:25;28.10;58.80
42135;DHT22;28312;43.460;11.810;2023-07-29T08:20:29;28.10;59.00
42135;DHT22;28312;43.460;11.810;2023-07-29T08:24:32;28.20;58.90
42135;DHT22;28312;43.460;11.810;2023-07-29T08:28:38;28.40;58.80
42135;DHT22;28312;43.460;11.810;2023-07-29T08:32:42;28.60;58.60
42135;DHT22;28312;43.460;11.810;2023-07-29T08:36:45;28.80;58.40
42135;DHT22;28312;43.460;11.810;2023-07-29T08:45:07;29.20;58.30
42135;DHT22;28312;43.460;11.810;2023-07-29T08:49:12;29.50;57.80
42135;DHT22;28312;43.460;11.810;2023-07-29T08:53:21;29.50;57.20
42135;DHT22;28312;43.460;11.810;2023-07-29T08:57:25;29.40;57.50
42135;DHT22;28312;43.460;11.810;2023-07-29T09:01:29;29.40;57.90
42135;DHT22;28312;43.460;11.810;2023-07-29T09:05:34;29.70;58.00
42135;DHT22;28312;43.460;11.810;2023-07-29T09:09:38;30.20;57.60
42135;DHT22;28312;43.460;11.810;2023-07-29T09:13:41;30.30;57.00
42135;DHT22;28312;43.460;11.810;2023-07-29T09:17:45;30.30;56.70
42135;DHT22;28312;43.460;11.810;2023-07-29T09:21:49;30.30;56.70
42135;DHT22;28312;43.460;11.810;2023-07-29T09:26:03;30.40;57.00
42135;DHT22;28312;43.460;11.810;2023-07-29T09:30:15;30.70;56.90
42135;DHT22;28312;43.460;11.810;2023-07-29T09:34:24;30.90;56.30
42135;DHT22;28312;43.460;11.810;2023-07-29T09:38:28;31.00;56.30
42135;DHT22;28312;43.460;11.810;2023-07-29T09:42:31;31.10;56.30
42135;DHT22;28312;43.460;11.810;2023-07-29T09:46:36;31.40;56.40
42135;DHT22;28312;43.460;11.810;2023-07-29T09:50:42;31.50;55.60
42135;DHT22;28312;43.460;11.810;2023-07-29T09:54:46;31.40;55.40
42135;DHT22;28312;43.460;11.810;2023-07-29T09:58:50;31.20;55.20
42135;DHT22;28312;43.460;11.810;2023-07-29T10:02:54;31.00;55.40
42135;DHT22;28312;43.460;11.810;2023-07-29T10:06:58;30.90;55.50
42135;DHT22;28312;43.460;11.810;2023-07-29T10:11:08;30.70;55.50
42135;DHT22;28312;43.460;11.810;2023-07-29T10:15:12;30.60;55.60
42135;DHT22;28312;43.460;11.810;2023-07-29T10:19:18;30.60;55.60
42135;DHT22;28312;43.460;11.810;2023-07-29T10:23:25;30.50;55.40
42135;DHT22;28312;43.460;11.810;2023-07-29T10:27:29;30.30;55.50
42135;DHT22;28312;43.460;11.810;2023-07-29T10:31:34;30.40;56.10
42135;DHT22;28312;43.460;11.810;2023-07-29T10:35:38;30.70;56.00
42135;DHT22;28312;43.460;11.810;2023-07-29T10:39:54;31.30;55.80
42135;DHT22;28312;43.460;11.810;2023-07-29T10:43:57;31.70;55.30
42135;DHT22;28312;43.460;11.810;2023-07-29T10:48:00;32.00;54.80
42135;DHT22;28312;43.460;11.810;2023-07-29T10:52:08;32.10;54.50
42135;DHT22;28312;43.460;11.810;2023-07-29T10:56:13;32.10;54.40
42135;DHT22;28312;43.460;11.810;2023-07-29T11:00:18;32.10;54.70
42135;DHT22;28312;43.460;11.810;2023-07-29T11:04:30;32.40;55.00
42135;DHT22;28312;43.460;11.810;2023-07-29T11:08:36;32.70;54.40
42135;DHT22;28312;43.460;11.810;2023-07-29T11:12:49;32.60;54.00
42135;DHT22;28312;43.460;11.810;2023-07-29T11:16:57;32.50;54.00
42135;DHT22;28312;43.460;11.810;2023-07-29T11:21:03;32.50;53.90
42135;DHT22;28312;43.460;11.810;2023-07-29T11:25:11;32.30;53.90
42135;DHT22;28312;43.460;11.810;2023-07-29T11:29:16;32.20;53.70
42135;DHT22;28312;43.460;11.810;2023-07-29T11:33:24;32.10;53.70
42135;DHT22;28312;43.460;11.810;2023-07-29T11:37:28;32.00;53.70
42135;DHT22;28312;43.460;11.810;2023-07-29T11:41:33;31.90;53.80
42135;DHT22;28312;43.460;11.810;2023-07-29T11:45:40;31.80;54.20
42135;DHT22;28312;43.460;11.810;2023-07-29T11:49:54;32.00;54.10
42135;DHT22;28312;43.460;11.810;2023-07-29T11:53:58;32.10;53.80
42135;DHT22;28312;43.460;11.810;2023-07-29T11:58:02;32.10;53.70
42135;DHT22;28312;43.460;11.810;2023-07-29T12:02:14;32.10;54.00
42135;DHT22;28312;43.460;11.810;2023-07-29T12:06:19;32.10;53.70
42135;DHT22;28312;43.460;11.810;2023-07-29T12:10:23;31.90;53.70
42135;DHT22;28312;43.460;11.810;2023-07-29T12:14:29;31.70;53.80
42135;DHT22;28312;43.460;11.810;2023-07-29T12:18:33;31.70;53.70
42135;DHT22;28312;43.460;11.810;2023-07-29T12:22:37;31.80;54.20
42135;DHT22;28312;43.460;11.810;2023-07-29T12:26:41;32.10;54.30
42135;DHT22;28312;43.460;11.810;2023-07-29T12:30:45;32.50;54.30
42135;DHT22;28312;43.460;11.810;2023-07-29T12:34:48;32.70;53.60
42135;DHT22;28312;43.460;11.810;2023-07-29T12:38:52;32.80;53.60
42135;DHT22;28312;43.460;11.810;2023-07-29T12:42:56;33.00;53.40
42135;DHT22;28312;43.460;11.810;2023-07-29T12:47:01;33.00;53.00
42135;DHT22;28312;43.460;11.810;2023-07-29T12:51:05;32.90;52.90
42135;DHT22;28312;43.460;11.810;2023-07-29T12:55:09;33.10;53.20
42135;DHT22;28312;43.460;11.810;2023-07-29T12:59:16;33.50;53.40
42135;DHT22;28312;43.460;11.810;2023-07-29T13:03:19;33.70;53.20
42135;DHT22;28312;43.460;11.810;2023-07-29T13:07:23;34.00;52.60
42135;DHT22;28312;43.460;11.810;2023-07-29T13:11:26;34.00;52.60
42135;DHT22;28312;43.460;11.810;2023-07-29T13:15:30;34.20;52.60
42135;DHT22;28312;43.460;11.810;2023-07-29T13:19:33;34.20;52.10
42135;DHT22;28312;43.460;11.810;2023-07-29T13:23:36;34.10;51.90
42135;DHT22;28312;43.460;11.810;2023-07-29T13:27:40;33.90;51.70
42135;DHT22;28312;43.460;11.810;2023-07-29T13:31:43;34.00;52.30
42135;DHT22;28312;43.460;11.810;2023-07-29T13:35:47;34.30;52.20
42135;DHT22;28312;43.460;11.810;2023-07-29T13:39:50;34.60;51.70
42135;DHT22;28312;43.460;11.810;2023-07-29T13:43:53;34.80;51.40
42135;DHT22;28312;43.460;11.810;2023-07-29T13:47:57;35.10;51.30
42135;DHT22;28312;43.460;11.810;2023-07-29T13:52:00;35.20;50.80
42135;DHT22;28312;43.460;11.810;2023-07-29T13:56:04;34.90;50.20
42135;DHT22;28312;43.460;11.810;2023-07-29T14:00:08;34.60;50.50
42135;DHT22;28312;43.460;11.810;2023-07-29T14:04:15;34.80;50.70
42135;DHT22;28312;43.460;11.810;2023-07-29T14:08:18;35.00;50.30
42135;DHT22;28312;43.460;11.810;2023-07-29T14:12:22;35.00;50.10
42135;DHT22;28312;43.460;11.810;2023-07-29T14:16:25;35.00;49.80
42135;DHT22;28312;43.460;11.810;2023-07-29T14:20:29;34.80;49.70
42135;DHT22;28312;43.460;11.810;2023-07-29T14:24:32;34.60;49.70
42135;DHT22;28312;43.460;11.810;2023-07-29T14:28:36;34.50;49.70
42135;DHT22;28312;43.460;11.810;2023-07-29T14:32:40;34.50;49.90
42135;DHT22;28312;43.460;11.810;2023-07-29T14:36:43;34.50;49.70
42135;DHT22;28312;43.460;11.810;2023-07-29T14:40:48;34.40;49.70
42135;DHT22;28312;43.460;11.810;2023-07-29T14:44:54;34.30;49.70
42135;DHT22;28312;43.460;11.810;2023-07-29T14:48:58;34.40;50.00
42135;DHT22;28312;43.460;11.810;2023-07-29T14:53:02;34.60;50.00
42135;DHT22;28312;43.460;11.810;2023-07-29T14:57:06;34.60;49.30
42135;DHT22;28312;43.460;11.810;2023-07-29T15:01:11;34.30;49.50
42135;DHT22;28312;43.460;11.810;2023-07-29T15:05:16;34.40;49.90
42135;DHT22;28312;43.460;11.810;2023-07-29T15:09:20;34.70;49.80
42135;DHT22;28312;43.460;11.810;2023-07-29T15:13:23;34.80;49.50
42135;DHT22;28312;43.460;11.810;2023-07-29T15:17:26;34.80;49.20
42135;DHT22;28312;43.460;11.810;2023-07-29T15:21:30;34.80;49.20
42135;DHT22;28312;43.460;11.810;2023-07-29T15:25:33;35.00;49.20
42135;DHT22;28312;43.460;11.810;2023-07-29T15:29:37;35.00;48.70
42135;DHT22;28312;43.460;11.810;2023-07-29T15:33:41;34.80;48.50
42135;DHT22;28312;43.460;11.810;2023-07-29T15:37:44;34.60;48.60
42135;DHT22;28312;43.460;11.810;2023-07-29T15:41:52;34.50;48.40
42135;DHT22;28312;43.460;11.810;2023-07-29T15:45:56;34.40;48.60
42135;DHT22;28312;43.460;11.810;2023-07-29T15:50:00;34.50;48.70
42135;DHT22;28312;43.460;11.810;2023-07-29T15:54:04;34.60;48.60
42135;DHT22;28312;43.460;11.810;2023-07-29T15:58:07;34.90;48.30
42135;DHT22;28312;43.460;11.810;2023-07-29T16:02:10;34.90;48.10
42135;DHT22;28312;43.460;11.810;2023-07-29T16:06:14;34.80;48.00
42135;DHT22;28312;43.460;11.810;2023-07-29T16:10:17;34.60;47.70
42135;DHT22;28312;43.460;11.810;2023-07-29T16:14:21;34.50;48.10
42135;DHT22;28312;43.460;11.810;2023-07-29T16:18:26;34.40;47.90
42135;DHT22;28312;43.460;11.810;2023-07-29T16:22:30;34.40;47.60
42135;DHT22;28312;43.460;11.810;2023-07-29T16:26:33;34.20;47.50
42135;DHT22;28312;43.460;11.810;2023-07-29T16:30:37;34.00;47.40
42135;DHT22;28312;43.460;11.810;2023-07-29T16:34:40;33.80;47.40
42135;DHT22;28312;43.460;11.810;2023-07-29T16:38:45;33.60;47.40
42135;DHT22;28312;43.460;11.810;2023-07-29T16:42:48;33.30;47.40
42135;DHT22;28312;43.460;11.810;2023-07-29T16:46:51;33.10;47.50
42135;DHT22;28312;43.460;11.810;2023-07-29T16:50:55;33.00;47.40
42135;DHT22;28312;43.460;11.810;2023-07-29T16:54:58;32.70;47.60
42135;DHT22;28312;43.460;11.810;2023-07-29T16:59:02;32.60;47.80
42135;DHT22;28312;43.460;11.810;2023-07-29T17:03:05;32.60;47.70
42135;DHT22;28312;43.460;11.810;2023-07-29T17:07:09;32.50;47.70
42135;DHT22;28312;43.460;11.810;2023-07-29T17:11:12;32.50;47.70
42135;DHT22;28312;43.460;11.810;2023-07-29T17:15:16;32.40;47.70
42135;DHT22;28312;43.460;11.810;2023-07-29T17:19:20;32.30;47.70
42135;DHT22;28312;43.460;11.810;2023-07-29T17:23:24;32.20;47.50
42135;DHT22;28312;43.460;11.810;2023-07-29T17:27:27;32.10;47.50
42135;DHT22;28312;43.460;11.810;2023-07-29T17:31:30;32.00;47.60
42135;DHT22;28312;43.460;11.810;2023-07-29T17:35:34;31.80;47.50
42135;DHT22;28312;43.460;11.810;2023-07-29T17:39:37;31.70;47.60
42135;DHT22;28312;43.460;11.810;2023-07-29T17:43:44;31.60;47.70
42135;DHT22;28312;43.460;11.810;2023-07-29T17:47:50;31.50;47.60
42135;DHT22;28312;43.460;11.810;2023-07-29T17:51:53;31.40;47.70
42135;DHT22;28312;43.460;11.810;2023-07-29T17:55:57;31.20;47.80
42135;DHT22;28312;43.460;11.810;2023-07-29T18:00:00;31.10;47.80
42135;DHT22;28312;43.460;11.810;2023-07-29T18:04:06;30.90;47.90
42135;DHT22;28312;43.460;11.810;2023-07-29T18:08:10;30.80;47.90
42135;DHT22;28312;43.460;11.810;2023-07-29T18:12:13;30.70;47.90
42135;DHT22;28312;43.460;11.810;2023-07-29T18:16:17;30.50;47.90
42135;DHT22;28312;43.460;11.810;2023-07-29T18:20:23;30.40;48.00
42135;DHT22;28312;43.460;11.810;2023-07-29T18:24:26;30.20;48.00
42135;DHT22;28312;43.460;11.810;2023-07-29T18:28:30;30.10;48.00
42135;DHT22;28312;43.460;11.810;2023-07-29T18:32:34;29.90;48.10
42135;DHT22;28312;43.460;11.810;2023-07-29T18:36:38;29.60;48.10
42135;DHT22;28312;43.460;11.810;2023-07-29T18:40:46;29.40;48.30
42135;DHT22;28312;43.460;11.810;2023-07-29T18:44:49;29.10;48.50
42135;DHT22;28312;43.460;11.810;2023-07-29T18:48:52;28.80;48.60
42135;DHT22;28312;43.460;11.810;2023-07-29T18:52:57;28.50;48.90
42135;DHT22;28312;43.460;11.810;2023-07-29T18:57:01;28.20;49.00
42135;DHT22;28312;43.460;11.810;2023-07-29T19:01:05;28.00;49.20
42135;DHT22;28312;43.460;11.810;2023-07-29T19:05:08;27.70;49.50
42135;DHT22;28312;43.460;11.810;2023-07-29T19:09:14;27.50;49.70
42135;DHT22;28312;43.460;11.810;2023-07-29T19:13:18;27.10;49.90
42135;DHT22;28312;43.460;11.810;2023-07-29T19:17:22;26.90;50.00
42135;DHT22;28312;43.460;11.810;2023-07-29T19:21:26;26.70;50.20
42135;DHT22;28312;43.460;11.810;2023-07-29T19:25:29;26.40;50.50
42135;DHT22;28312;43.460;11.810;2023-07-29T19:29:33;26.10;50.70
42135;DHT22;28312;43.460;11.810;2023-07-29T19:33:36;25.90;50.90
42135;DHT22;28312;43.460;11.810;2023-07-29T19:37:43;25.70;51.10
42135;DHT22;28312;43.460;11.810;2023-07-29T19:41:46;25.60;51.30
42135;DHT22;28312;43.460;11.810;2023-07-29T19:45:50;25.50;51.50
42135;DHT22;28312;43.460;11.810;2023-07-29T19:50:14;25.30;51.70
42135;DHT22;28312;43.460;11.810;2023-07-29T19:54:17;25.10;51.90
42135;DHT22;28312;43.460;11.810;2023-07-29T19:58:20;25.00;51.90
42135;DHT22;28312;43.460;11.810;2023-07-29T20:02:24;24.90;52.00
42135;DHT22;28312;43.460;11.810;2023-07-29T20:06:29;24.80;52.10
42135;DHT22;28312;43.460;11.810;2023-07-29T20:10:33;24.60;52.20
42135;DHT22;28312;43.460;11.810;2023-07-29T20:14:39;24.60;52.30
42135;DHT22;28312;43.460;11.810;2023-07-29T20:18:42;24.50;52.10
42135;DHT22;28312;43.460;11.810;2023-07-29T20:22:46;24.50;52.40
42135;DHT22;28312;43.460;11.810;2023-07-29T20:26:51;24.40;52.60
42135;DHT22;28312;43.460;11.810;2023-07-29T20:30:58;24.40;52.60
42135;DHT22;28312;43.460;11.810;2023-07-29T20:35:02;24.30;52.80
42135;DHT22;28312;43.460;11.810;2023-07-29T20:39:06;24.20;52.90
42135;DHT22;28312;43.460;11.810;2023-07-29T20:43:10;24.20;52.90
42135;DHT22;28312;43.460;11.810;2023-07-29T20:47:14;24.20;53.00
42135;DHT22;28312;43.460;11.810;2023-07-29T20:51:18;24.10;53.10
42135;DHT22;28312;43.460;11.810;2023-07-29T20:55:22;24.00;53.30
42135;DHT22;28312;43.460;11.810;2023-07-29T20:59:25;23.90;53.30
42135;DHT22;28312;43.460;11.810;2023-07-29T21:03:29;23.80;53.30
42135;DHT22;28312;43.460;11.810;2023-07-29T21:07:33;23.70;53.50
42135;DHT22;28312;43.460;11.810;2023-07-29T21:11:36;23.60;53.50
42135;DHT22;28312;43.460;11.810;2023-07-29T21:15:40;23.40;53.80
42135;DHT22;28312;43.460;11.810;2023-07-29T21:19:44;23.20;53.90
42135;DHT22;28312;43.460;11.810;2023-07-29T21:23:47;23.10;54.10
42135;DHT22;28312;43.460;11.810;2023-07-29T21:27:52;22.90;54.30
42135;DHT22;28312;43.460;11.810;2023-07-29T21:31:55;22.80;54.40
42135;DHT22;28312;43.460;11.810;2023-07-29T21:35:59;22.70;54.50
42135;DHT22;28312;43.460;11.810;2023-07-29T21:40:03;22.60;54.70
42135;DHT22;28312;43.460;11.810;2023-07-29T21:44:07;22.60;54.80
42135;DHT22;28312;43.460;11.810;2023-07-29T21:48:11;22.40;54.90
42135;DHT22;28312;43.460;11.810;2023-07-29T21:52:14;22.30;55.00
42135;DHT22;28312;43.460;11.810;2023-07-29T21:56:18;22.20;55.20
42135;DHT22;28312;43.460;11.810;2023-07-29T22:00:22;22.10;55.40
42135;DHT22;28312;43.460;11.810;2023-07-29T22:04:27;22.10;55.50
42135;DHT22;28312;43.460;11.810;2023-07-29T22:08:30;21.90;55.60
42135;DHT22;28312;43.460;11.810;2023-07-29T22:12:34;21.90;55.70
42135;DHT22;28312;43.460;11.810;2023-07-29T22:16:37;21.80;55.70
42135;DHT22;28312;43.460;11.810;2023-07-29T22:20:41;21.70;55.80
42135;DHT22;28312;43.460;11.810;2023-07-29T22:24:44;21.60;56.00
42135;DHT22;28312;43.460;11.810;2023-07-29T22:28:48;21.60;56.10
42135;DHT22;28312;43.460;11.810;2023-07-29T22:32:52;21.50;56.20
42135;DHT22;28312;43.460;11.810;2023-07-29T22:36:56;21.50;56.40
42135;DHT22;28312;43.460;11.810;2023-07-29T22:41:00;21.50;56.40
42135;DHT22;28312;43.460;11.810;2023-07-29T22:45:03;21.50;56.50
42135;DHT22;28312;43.460;11.810;2023-07-29T22:49:07;21.40;56.50
42135;DHT22;28312;43.460;11.810;2023-07-29T22:53:13;21.40;56.60
42135;DHT22;28312;43.460;11.810;2023-07-29T22:57:16;21.30;56.60
42135;DHT22;28312;43.460;11.810;2023-07-29T23:01:20;21.20;56.70
42135;DHT22;28312;43.460;11.810;2023-07-29T23:05:24;21.10;56.90
42135;DHT22;28312;43.460;11.810;2023-07-29T23:09:28;21.00;57.00
42135;DHT22;28312;43.460;11.810;2023-07-29T23:13:31;20.90;57.20
42135;DHT22;28312;43.460;11.810;2023-07-29T23:17:36;20.80;57.30
42135;DHT22;28312;43.460;11.810;2023-07-29T23:21:40;20.80;57.40
42135;DHT22;28312;43.460;11.810;2023-07-29T23:25:44;20.80;57.30
42135;DHT22;28312;43.460;11.810;2023-07-29T23:29:47;20.70;57.50
42135;DHT22;28312;43.460;11.810;2023-07-29T23:33:51;20.60;57.60
42135;DHT22;28312;43.460;11.810;2023-07-29T23:37:54;20.60;57.70
42135;DHT22;28312;43.460;11.810;2023-07-29T23:41:58;20.50;57.80
42135;DHT22;28312;43.460;11.810;2023-07-29T23:46:02;20.50;57.90
42135;DHT22;28312;43.460;11.810;2023-07-29T23:50:06;20.50;58.00
42135;DHT22;28312;43.460;11.810;2023-07-29T23:54:10;20.40;58.20
42135;DHT22;28312;43.460;11.810;2023-07-29T23:58:13;20.40;58.20
